Latest Weather Observations for Century Mine

IDQ60801

Issued at 3:02 pm EST Saturday 28 February 2015 (issued every 30 minutes, with the page automatically refreshed every 10 minutes)

About weather observations | Map of weather stations | Latest weather observations for QLD | Other Formats
Station Details ID: 029167 Name: CENTURY MINE Lat: -18.76 Lon: 138.71 Height: 126.8 m
Data from the previous 72 hours. | See also: Recent months at Century Mine
Date/Time
EST
Temp
°C
App
Temp
°C
Dew
Point
Rel
Hum
%
Delta-T
°C
Wind Press
QNH
hPa
Press
MSL
hPa
Rain
since 9 am
mm
Dir
 
Spd
km/h
Gust
km/h
Spd
kts
Gust
kts
28/03:00pm 38.0 39.0 16.9 29 13.7 NNE 7 20 4 11 1003.9 1002.9 0.0
28/02:30pm 38.6 39.1 17.4 29 13.9 WNW 11 17 6 9 1004.3 1003.3 0.0
28/02:00pm 37.8 37.6 16.7 29 13.7 NW 13 24 7 13 1004.6 1003.6 0.0
28/01:30pm 37.3 38.5 17.3 30 13.0 WNW 7 15 4 8 1005.0 1004.0 0.0
28/01:00pm 36.9 36.7 17.5 32 12.7 NW 15 28 8 15 1005.7 1004.7 0.0
28/12:30pm 37.2 36.8 17.2 30 13.0 W 15 24 8 13 1006.2 1005.2 0.0
28/12:00pm 37.1 37.3 17.6 31 12.8 WNW 13 28 7 15 1006.6 1005.6 0.0
28/11:30am 36.1 34.6 15.2 28 13.2 NW 17 24 9 13 1007.0 1006.1 0.0
28/11:00am 35.3 36.0 18.8 37 10.9 NNW 13 24 7 13 1007.2 1006.3 0.0
28/10:30am 34.2 34.8 19.4 41 9.8 NNW 15 22 8 12 1007.4 1006.5 0.0
28/10:00am 33.9 35.1 19.9 43 9.4 NW 13 24 7 13 1007.7 1006.8 0.0
28/09:30am 32.8 33.3 20.0 47 8.5 NW 17 22 9 12 1007.6 1006.7 0.0
28/09:00am 32.0 33.0 20.3 50 7.8 NW 15 22 8 12 1007.3 1006.4 0.0
28/08:30am 30.6 31.9 20.8 56 6.6 NNW 15 24 8 13 1007.4 1006.5 0.0
28/08:00am 29.1 31.6 21.8 64 4.9 NNW 11 17 6 9 1006.9 1006.0 0.0
28/07:30am 27.9 31.4 22.1 70 3.9 N 7 11 4 6 1007.0 1006.1 0.0
28/07:00am 27.5 30.4 21.8 71 3.8 NE 9 11 5 6 1006.9 1006.0 0.0
28/06:30am 27.7 30.9 21.7 70 4.0 N 7 9 4 5 1006.5 1005.5 0.0
28/06:00am 27.8 30.5 21.3 67 4.4 NNE 9 11 5 6 1006.0 1005.0 0.0
28/05:30am 28.3 31.3 21.3 65 4.7 NNW 7 9 4 5 1005.4 1004.4 0.0
28/05:00am 28.6 31.4 21.6 66 4.7 NNW 9 11 5 6 1004.9 1003.9 0.0
28/04:30am 28.6 31.7 21.4 65 4.8 NNW 7 11 4 6 1004.9 1003.9 0.0
28/04:00am 28.8 31.3 21.0 62 5.2 NNW 9 13 5 7 1005.2 1004.2 0.0
28/03:30am 29.0 30.2 20.7 61 5.5 NW 15 20 8 11 1005.0 1004.0 0.0
28/03:00am 29.3 30.9 20.7 59 5.7 NNW 13 20 7 11 1005.5 1004.5 0.0
28/02:30am 29.1 31.1 21.6 64 5.1 NNW 13 17 7 9 1005.6 1004.6 0.0
28/02:00am 29.5 31.4 21.4 61 5.5 NNW 13 19 7 10 1006.1 1005.1 0.0
28/01:30am 29.7 31.6 21.4 61 5.6 N 13 17 7 9 1006.5 1005.5 0.0
28/01:00am 29.8 32.6 21.5 61 5.6 NNW 9 13 5 7 1007.1 1006.2 0.0
28/12:30am 30.1 32.9 21.5 60 5.8 N 9 13 5 7 1007.2 1006.3 0.0
28/12:00am 29.9 33.1 21.6 61 5.6 N 7 11 4 6 1007.0 1006.1 0.0
 
Date/Time
EST
Temp
°C
App
Temp
°C
Dew
Point
Rel
Hum
%
Delta-T
°C
Wind Press
QNH
hPa
Press
MSL
hPa
Rain
since 9 am
mm
Dir
 
Spd
km/h
Gust
km/h
Spd
kts
Gust
kts
27/11:30pm 29.7 33.2 22.2 64 5.1 N 7 9 4 5 1007.1 1006.2 0.0
27/11:00pm 29.6 32.5 21.8 63 5.3 NE 9 11 5 6 1007.6 1006.7 0.0
27/10:30pm 30.1 33.5 21.7 60 5.7 NE 6 7 3 4 1007.3 1006.4 0.0
27/10:00pm 30.7 33.3 21.2 57 6.4 N 9 11 5 6 1006.7 1005.7 0.0
27/09:30pm 30.8 33.6 21.6 58 6.2 NNE 9 13 5 7 1006.1 1005.1 0.0
27/09:00pm 31.0 32.8 21.2 56 6.6 NNE 13 15 7 8 1005.4 1004.4 0.0
27/08:30pm 32.1 33.5 20.4 50 7.8 NNE 13 19 7 10 1005.1 1004.1 0.0
27/08:00pm 32.8 35.3 20.3 47 8.4 N 7 20 4 11 1004.9 1003.9 0.0
27/07:30pm 33.4 36.1 20.2 46 8.8 WSW 6 7 3 4 1004.4 1003.4 0.0
27/07:00pm 34.6 36.1 19.0 39 10.3 WSW 9 15 5 8 1003.7 1002.7 0.0
27/06:30pm 36.2 36.7 18.3 34 11.8 WSW 13 20 7 11 1003.2 1002.3 0.0
27/06:00pm 37.5 37.4 15.9 28 13.8 NNW 11 15 6 8 1003.1 1002.2 0.0
27/05:30pm 37.7 39.2 16.6 28 13.6 WSW 4 9 2 5 1003.0 1002.1 0.0
27/05:00pm 37.9 38.1 15.7 27 14.2 NW 9 15 5 8 1003.2 1002.3 0.0
27/04:30pm 38.2 38.5 15.9 26 14.3 NW 9 19 5 10 1003.3 1002.4 0.0
27/04:00pm 38.3 39.7 17.7 30 13.5 NW 7 17 4 9 1003.3 1002.4 0.0
27/03:30pm 38.3 37.8 16.0 27 14.3 WNW 13 26 7 14 1003.7 1002.7 0.0
27/03:00pm 38.1 37.6 16.9 28 13.8 NNW 15 24 8 13 1004.0 1003.0 0.0
27/02:30pm 38.2 37.7 17.0 28 13.8 N 15 26 8 14 1004.1 1003.1 0.0
27/02:00pm 37.4 38.0 16.9 30 13.3 NW 9 15 5 8 1004.8 1003.8 0.0
27/01:30pm 36.2 36.5 15.9 30 12.9 NW 9 19 5 10 1005.7 1004.7 0.0
27/01:00pm 36.3 36.8 16.5 31 12.7 W 9 19 5 10 1006.3 1005.3 0.0
27/12:30pm 35.3 36.8 18.0 36 11.3 NW 7 13 4 7 1006.9 1006.0 0.0
27/12:00pm 35.9 35.3 17.6 34 11.9 NNW 17 26 9 14 1007.2 1006.3 0.0
27/11:30am 35.3 35.8 18.4 37 11.1 NW 13 20 7 11 1007.6 1006.7 0.0
27/11:00am 34.6 35.9 20.2 43 9.7 NW 13 22 7 12 1007.9 1007.0 0.0
27/10:30am 34.1 36.7 21.9 49 8.4 NW 11 22 6 12 1008.0 1007.1 0.0
27/10:00am 33.4 34.8 21.9 51 7.9 NW 17 24 9 13 1008.3 1007.4 0.0
27/09:30am 32.2 34.8 22.6 57 6.6 NW 13 20 7 11 1008.3 1007.4 0.0
27/09:00am 31.1 34.6 23.5 64 5.3 NW 11 17 6 9 1008.1 1007.2 0.0
27/08:30am 29.9 34.5 23.8 70 4.2 NW 6 13 3 7 1007.7 1006.8 0.0
27/08:00am 28.4 33.6 24.2 78 2.9 N 4 7 2 4 1007.6 1006.7 0.0
27/07:30am 27.2 33.3 24.5 85 1.9 CALM 0 0 0 0 1007.2 1006.3 0.0
27/07:00am 26.6 32.5 24.1 86 1.7 CALM 0 0 0 0 1006.7 1005.7 0.0
27/06:30am 26.7 32.3 23.6 83 2.1 CALM 0 6 0 3 1006.1 1005.1 0.0
27/06:00am 27.1 31.7 23.8 82 2.3 NW 6 9 3 5 1005.8 1004.8 0.0
27/05:30am 27.4 31.7 23.6 80 2.6 NNW 7 9 4 5 1005.6 1004.6 0.0
27/05:00am 27.5 31.9 23.5 79 2.8 NW 6 9 3 5 1005.3 1004.3 0.0
27/04:30am 27.4 32.4 23.2 78 2.9 NW 2 6 1 3 1005.4 1004.4 0.0
27/04:00am 27.4 32.1 22.6 75 3.3 NNE 2 6 1 3 1005.3 1004.3 0.0
27/03:30am 27.4 31.0 22.3 73 3.5 NNW 7 9 4 5 1005.0 1004.0 0.0
27/03:00am 27.3 30.6 21.8 72 3.7 NNW 7 11 4 6 1005.3 1004.3 0.0
27/02:30am 27.3 30.3 22.0 73 3.6 NNW 9 13 5 7 1005.3 1004.3 0.0
27/02:00am 27.2 30.4 22.4 75 3.3 NW 9 11 5 6 1005.9 1004.9 0.0
27/01:30am 27.6 31.3 22.5 74 3.5 NNW 7 9 4 5 1006.1 1005.1 0.0
27/01:00am 27.9 31.6 22.6 73 3.6 NW 7 7 4 4 1006.5 1005.5 0.0
27/12:30am 27.7 31.9 23.1 76 3.2 NW 6 6 3 3 1006.7 1005.7 0.0
27/12:00am 28.1 32.2 23.0 74 3.5 NW 6 7 3 4 1006.7 1005.7 0.0
 
Date/Time
EST
Temp
°C
App
Temp
°C
Dew
Point
Rel
Hum
%
Delta-T
°C
Wind Press
QNH
hPa
Press
MSL
hPa
Rain
since 9 am
mm
Dir
 
Spd
km/h
Gust
km/h
Spd
kts
Gust
kts
26/11:30pm 28.2 32.7 22.9 73 3.6 NNE 4 7 2 4 1007.1 1006.2 0.0
26/11:00pm 28.2 33.6 23.3 75 3.4 CALM 0 0 0 0 1006.9 1006.0 0.0
26/10:30pm 28.3 32.5 23.2 74 3.5 ENE 6 9 3 5 1006.5 1005.5 0.0
26/10:00pm 28.4 33.2 22.9 72 3.8 ESE 2 9 1 5 1006.4 1005.4 0.0
26/09:30pm 28.7 33.3 22.4 68 4.3 SE 2 7 1 4 1006.2 1005.2 0.0
26/09:00pm 29.1 34.0 22.3 66 4.6 CALM 0 6 0 3 1006.0 1005.0 0.0
26/08:30pm 29.6 33.3 20.7 58 5.9 NNE 2 6 1 3 1006.3 1005.3 0.0
26/08:00pm 29.8 32.1 20.6 57 6.1 N 9 13 5 7 1005.7 1004.7 0.0
26/07:30pm 30.3 32.7 20.8 56 6.4 NNW 9 15 5 8 1005.4 1004.4 0.0
26/07:00pm 30.7 32.5 20.3 53 6.9 NW 11 19 6 10 1004.8 1003.8 0.0
26/06:30pm 31.0 31.8 19.0 48 7.8 NNE 13 17 7 9 1004.5 1003.5 0.0
26/06:00pm 30.6 30.7 19.9 52 7.1 NE 19 32 10 17 1003.9 1002.9 0.0
26/05:30pm 30.8 30.6 22.1 59 5.9 NE 26 43 14 23 1004.0 1003.0 0.0
26/05:08pm 32.0 30.0 18.2 43 8.9 NE 26 67 14 36 1003.8 1002.8 0.0
26/05:07pm 32.3 30.8 17.7 41 9.4 NE 22 67 12 36 1003.8 1002.8 0.0
26/05:05pm 37.6 38.6 19.5 34 12.1 NE 13 54 7 29 1003.9 1002.9 0.0
26/05:00pm 38.1 40.0 19.0 32 12.8 N 7 15 4 8 1002.8 1001.9 0.0
26/04:30pm 38.3 39.8 19.7 34 12.5 WNW 11 19 6 10 1002.0 1001.1 0.0
26/04:00pm 37.3 39.4 20.1 36 11.6 N 9 15 5 8 1002.7 1001.8 0.0
26/03:30pm 37.1 39.0 22.0 41 10.4 NNE 15 22 8 12 1003.2 1002.3 0.0
26/03:00pm 35.9 36.3 19.8 39 10.8 ENE 17 22 9 12 1003.5 1002.5 0.0
26/02:30pm 37.1 38.7 20.8 38 11.1 N 13 20 7 11 1004.1 1003.1 0.0
26/02:00pm 37.0 39.5 20.3 37 11.3 SW 7 13 4 7 1004.6 1003.6 0.0
26/01:30pm 36.6 38.4 20.4 38 11.0 NNW 11 19 6 10 1005.3 1004.3 0.0
26/01:00pm 36.6 38.6 20.8 39 10.8 N 11 17 6 9 1006.0 1005.0 0.0
26/12:30pm 35.1 37.8 21.4 45 9.3 N 9 15 5 8 1006.7 1005.7 0.0
26/12:00pm 35.1 38.0 21.7 45 9.2 NE 9 17 5 9 1007.2 1006.3 0.0
26/11:30am 34.0 36.7 21.4 47 8.6 N 9 17 5 9 1007.6 1006.7 0.0
26/11:00am 33.9 37.1 23.0 53 7.6 N 11 20 6 11 1007.9 1007.0 0.0
26/10:30am 32.8 36.2 21.6 51 7.6 NNE 6 11 3 6 1008.1 1007.2 0.0
26/10:00am 31.0 34.0 20.9 55 6.8 ESE 6 11 3 6 1008.1 1007.2 0.0
26/09:30am 30.3 33.3 20.8 56 6.4 ESE 6 11 3 6 1008.2 1007.3 0.0
26/09:00am 30.2 33.4 21.6 60 5.8 ESE 7 13 4 7 1008.1 1007.2 15.2
26/08:30am 29.2 32.8 22.4 66 4.6 ESE 7 11 4 6 1007.9 1007.0 15.2
26/08:00am 27.9 33.6 23.7 78 2.9 CALM 0 4 0 2 1007.5 1006.6 15.2
26/07:30am 26.9 31.8 24.4 86 1.7 ENE 6 9 3 5 1007.2 1006.3 15.2
26/07:00am 26.3 32.0 23.8 86 1.7 CALM 0 0 0 0 1006.6 1005.6 15.2
26/06:30am 26.2 30.3 22.9 82 2.2 WNW 6 11 3 6 1006.0 1005.0 15.2
26/06:00am 26.5 32.0 23.4 83 2.1 CALM 0 0 0 0 1006.0 1005.0 15.2
26/05:30am 26.7 32.1 23.2 81 2.4 CALM 0 9 0 5 1005.4 1004.4 15.2
26/05:00am 26.6 30.5 22.9 80 2.5 W 7 9 4 5 1005.7 1004.7 15.2
26/04:30am 27.0 30.8 22.4 76 3.1 SSE 6 11 3 6 1005.7 1004.7 15.2
26/04:00am 27.0 30.2 22.4 76 3.1 SSE 9 15 5 8 1006.8 1005.8 15.2
26/03:30am 26.6 30.4 22.7 79 2.6 SSE 7 9 4 5 1006.8 1005.8 15.2
26/03:00am 26.4 31.0 22.5 79 2.6 SSE 2 7 1 4 1006.1 1005.1 15.2
26/02:30am 26.8 31.1 22.0 75 3.2 SSW 2 6 1 3 1006.3 1005.3 15.2
26/02:00am 27.0 29.9 22.4 76 3.1 SSW 11 20 6 11 1006.7 1005.7 15.2
26/01:30am 26.7 29.9 23.0 80 2.5 S 11 17 6 9 1007.2 1006.3 15.2
26/01:00am 26.2 31.4 23.5 85 1.9 SE 2 7 1 4 1007.1 1006.2 15.2
26/12:30am 26.0 30.2 23.1 84 2.0 SW 6 7 3 4 1006.8 1005.8 15.2
26/12:00am 25.9 30.1 23.2 85 1.8 WSW 6 11 3 6 1007.4 1006.5 15.2
 
Date/Time
EST
Temp
°C
App
Temp
°C
Dew
Point
Rel
Hum
%
Delta-T
°C
Wind Press
QNH
hPa
Press
MSL
hPa
Rain
since 9 am
mm
Dir
 
Spd
km/h
Gust
km/h
Spd
kts
Gust
kts
25/11:30pm 26.0 30.2 23.1 84 2.0 NW 6 9 3 5 1008.2 1007.3 15.2
25/11:00pm 25.9 30.1 23.4 86 1.7 WNW 7 13 4 7 1008.1 1007.2 15.2
25/10:30pm 25.4 29.1 23.3 88 1.4 WNW 9 13 5 7 1007.8 1006.9 15.0
25/10:00pm 25.5 27.4 23.4 88 1.4 NNW 19 30 10 16 1007.7 1006.8 14.6
25/09:30pm 26.1 27.1 22.8 82 2.2 N 22 30 12 16 1007.0 1006.1 14.0
25/09:00pm 25.1 27.7 22.6 86 1.7 S 13 22 7 12 1005.9 1004.9 13.8
25/08:30pm 23.7 21.4 21.2 86 1.7 S 35 59 19 32 1007.3 1006.4 11.0
25/08:15pm 26.1 23.9 19.5 67 4.3 S 30 54 16 29 1006.2 1005.2 1.4
25/08:00pm 31.5 29.3 17.8 44 8.8 SE 26 56 14 30 1005.1 1004.1 0.6
25/07:57pm 32.0 30.8 17.5 42 9.3 SE 20 56 11 30 1004.9 1003.9 0.6
25/07:56pm 32.3 32.1 18.5 44 9.0 SE 17 44 9 24 1004.8 1003.8 0.6
25/07:30pm 33.4 36.4 21.9 51 7.9 ESE 9 13 5 7 1004.4 1003.4 0.6
25/07:00pm 34.0 36.9 21.8 49 8.4 ESE 9 13 5 7 1004.1 1003.1 0.6
25/06:30pm 34.1 36.9 21.5 47 8.6 ESE 9 15 5 8 1003.6 1002.6 0.6
25/06:00pm 33.6 34.4 21.4 48 8.3 ESE 19 28 10 15 1003.0 1002.1 0.6
25/05:30pm 38.2 40.2 19.1 32 12.7 SSE 7 15 4 8 1003.1 1002.2 0.6
25/05:00pm 37.2 40.4 21.3 39 10.9 SW 6 13 3 7 1003.3 1002.4 0.6
25/04:30pm 32.5 38.2 25.6 67 4.9 SSW 6 9 3 5 1003.7 1002.7 0.6
25/04:00pm 28.9 29.4 21.1 62 5.2 S 20 32 11 17 1004.3 1003.3 0.2
25/03:50pm 32.8 33.5 18.9 43 9.1 S 13 33 7 18 1004.5 1003.5 0.0
25/03:30pm 38.1 39.0 17.5 30 13.5 NW 9 17 5 9 1004.3 1003.3 0.0

Other Formats:

Comma delimited format used in spreadsheet applications
http://www.bom.gov.au/fwo/IDQ60801/IDQ60801.94261.axf

JavaScript Object Notation format (JSON) in row-major order
http://www.bom.gov.au/fwo/IDQ60801/IDQ60801.94261.json